Racine, Wisconsin
Current Conditions -  °F | °C
As of 1:53 PM on Sunday 23 Nov 2014 (Local Time) from KRAC Reporting Station
Light Rain Light Rain  
Wind Chill: 40°   Ceiling: 6500
Heat Index: 46°   Visibility: 5mi
Dew Point: 44°   Wind: 13mph
Humidity: 93%   Direction: 160°SSE
Pressure: 29.55"   Gusts: NA
Location:  42.73°N, 87.79°W
Report Text: KRAC 231953Z AUTO 16011KT 5SM -RA BR SCT013 BKN065 OVC090 08/07 A2955 RMK AO2 RAB12 SLP007 P0001 T00780067
Loading
Personal Weather Stations






























Interactive Weather Map New forecast layout! Learn more

10-Day Weather Forecast

Advertisements
Track Severe Weather on mobile